Time;durP1;ratioP1;P1;durP2;ratioP2;P2;SDS_P1;SDS_P2;PMS_P1;PMS_P2;Temp;Humidity;BMP_temperature;BMP_pressure;BME280_temperature;BME280_humidity;BME280_pressure;Samples;Min_cycle;Max_cycle;Signal;HPM_P1;HPM_P2
2021/05/19 00:01:58;;;;;;;1.80;1.20;;;9.50;99.90;;;;;;5073282;28;20040;-74
2021/05/19 00:04:24;;;;;;;3.13;1.30;;;9.50;99.90;;;;;;5073380;28;20028;-74
2021/05/19 00:06:50;;;;;;;1.67;1.40;;;9.40;99.90;;;;;;5073081;28;20036;-74
2021/05/19 00:09:16;;;;;;;2.78;1.20;;;9.40;99.90;;;;;;5071836;28;20024;-73
2021/05/19 00:11:47;;;;;;;3.22;1.23;;;9.40;99.90;;;;;;5073202;28;20017;-74
2021/05/19 00:14:15;;;;;;;2.55;1.40;;;9.50;99.90;;;;;;5073267;28;20031;-74
2021/05/19 00:16:43;;;;;;;3.08;1.65;;;9.50;99.90;;;;;;5055003;28;20024;-73
2021/05/19 00:19:08;;;;;;;1.75;1.25;;;9.60;99.90;;;;;;5072888;28;20468;-74
2021/05/19 00:21:35;;;;;;;2.13;1.27;;;9.40;99.90;;;;;;5071648;28;20060;-74
2021/05/19 00:24:01;;;;;;;1.73;1.13;;;9.40;99.90;;;;;;5071584;28;20024;-74
2021/05/19 00:26:27;;;;;;;6.55;1.42;;;9.40;99.90;;;;;;5072768;28;20025;-74
2021/05/19 00:28:55;;;;;;;5.60;1.40;;;9.60;99.90;;;;;;5071422;28;20031;-74
2021/05/19 00:31:23;;;;;;;3.05;1.95;;;9.70;99.90;;;;;;5071558;28;20021;-74
2021/05/19 00:33:49;;;;;;;1.33;1.23;;;9.90;99.90;;;;;;5072655;28;20016;-74
2021/05/19 00:36:15;;;;;;;3.60;1.40;;;9.90;99.90;;;;;;5072933;28;20032;-74
2021/05/19 00:38:40;;;;;;;2.08;1.42;;;9.90;99.90;;;;;;5072746;28;20487;-74
2021/05/19 00:41:08;;;;;;;4.40;1.42;;;9.80;99.90;;;;;;5071332;28;20040;-74
2021/05/19 00:43:34;;;;;;;2.17;1.40;;;9.80;99.90;;;;;;5071294;28;20025;-74
2021/05/19 00:46:00;;;;;;;2.03;1.40;;;9.70;99.90;;;;;;5071158;28;20036;-74
2021/05/19 00:48:25;;;;;;;3.65;1.75;;;9.90;99.90;;;;;;5054381;28;20399;-74
2021/05/19 00:50:51;;;;;;;1.38;1.27;;;10.00;99.90;;;;;;5072364;28;20020;-74
2021/05/19 00:53:17;;;;;;;4.43;1.50;;;10.10;99.90;;;;;;5071121;28;20035;-74
2021/05/19 00:55:43;;;;;;;4.22;2.03;;;10.00;99.90;;;;;;5072331;28;20017;-74
2021/05/19 00:58:08;;;;;;;5.18;1.23;;;9.90;99.90;;;;;;5071087;28;20024;-74
2021/05/19 01:00:35;;;;;;;14.00;1.50;;;9.60;99.90;;;;;;5054101;28;20036;-74
2021/05/19 01:03:02;;;;;;;2.47;1.27;;;9.50;99.90;;;;;;5072217;28;20023;-74
2021/05/19 01:10:49;;;;;;;3.20;1.50;;;9.70;99.90;;;;;;5052515;28;20067;-74
2021/05/19 01:13:16;;;;;;;1.83;1.25;;;9.70;99.90;;;;;;5072072;28;20020;-74
2021/05/19 01:15:42;;;;;;;5.75;1.60;;;9.60;99.90;;;;;;5070751;28;20035;-74
2021/05/19 01:18:08;;;;;;;1.63;1.42;;;9.60;99.90;;;;;;5070877;28;20032;-74
2021/05/19 01:20:35;;;;;;;3.85;1.73;;;9.40;99.90;;;;;;5072199;28;20021;-74
2021/05/19 01:23:03;;;;;;;4.90;1.75;;;9.50;99.90;;;;;;5070776;28;20031;-74
2021/05/19 01:25:29;;;;;;;2.30;1.50;;;9.50;99.90;;;;;;5072096;28;20021;-74
2021/05/19 01:27:57;;;;;;;4.38;1.45;;;9.60;99.90;;;;;;5071795;28;20016;-74
2021/05/19 01:30:23;;;;;;;5.57;2.08;;;9.50;99.90;;;;;;5071813;28;20081;-74
2021/05/19 01:32:50;;;;;;;1.30;1.00;;;9.50;99.90;;;;;;5071973;28;20025;-74
2021/05/19 01:35:16;;;;;;;3.25;1.35;;;9.50;99.90;;;;;;5072004;28;20017;-74
2021/05/19 01:37:44;;;;;;;2.90;1.55;;;9.60;99.90;;;;;;5070637;28;20035;-74
2021/05/19 01:40:12;;;;;;;2.92;1.65;;;9.50;99.90;;;;;;5053951;28;20395;-74
2021/05/19 01:42:39;;;;;;;3.97;1.67;;;9.40;99.90;;;;;;5071693;28;20040;-74
2021/05/19 01:45:07;;;;;;;5.80;1.38;;;9.40;99.90;;;;;;5070606;28;20056;-74
2021/05/19 01:47:42;;;;;;;1.80;1.35;;;9.30;99.90;;;;;;5070462;28;20025;-74
2021/05/19 01:50:37;;;;;;;3.40;1.33;;;9.40;99.90;;;;;;5070490;28;20024;-74
2021/05/19 01:53:04;;;;;;;7.32;1.75;;;9.40;99.90;;;;;;5032678;28;20125;-74
2021/05/19 01:55:31;;;;;;;2.67;1.58;;;9.70;99.90;;;;;;5070489;28;20535;-74
2021/05/19 01:57:57;;;;;;;1.90;1.60;;;9.50;99.90;;;;;;5072058;28;20020;-74
2021/05/19 02:00:25;;;;;;;2.17;1.58;;;9.60;99.90;;;;;;5071782;28;20025;-74
2021/05/19 02:03:02;;;;;;;2.47;1.95;;;9.40;99.90;;;;;;5071649;28;20075;-74
2021/05/19 02:05:28;;;;;;;2.00;1.60;;;9.40;99.90;;;;;;5072196;28;20081;-74
2021/05/19 02:07:55;;;;;;;1.95;1.45;;;9.40;99.90;;;;;;5070380;28;20474;-74
2021/05/19 02:10:21;;;;;;;2.47;2.00;;;9.60;99.90;;;;;;5071585;28;20029;-74
2021/05/19 02:12:47;;;;;;;3.58;1.50;;;9.60;99.90;;;;;;5071981;28;20020;-74
2021/05/19 02:15:16;;;;;;;6.10;1.67;;;9.30;99.90;;;;;;5075327;28;20090;-74
2021/05/19 02:17:43;;;;;;;2.13;1.75;;;9.30;99.90;;;;;;5074007;28;20020;-74
2021/05/19 02:20:12;;;;;;;1.80;1.70;;;9.40;99.90;;;;;;5075137;28;20033;-74
2021/05/19 02:22:39;;;;;;;3.60;1.45;;;9.50;99.90;;;;;;5073978;28;20519;-74
2021/05/19 02:25:06;;;;;;;5.95;1.60;;;9.70;99.90;;;;;;5073887;28;20484;-74
2021/05/19 02:27:33;;;;;;;3.08;1.80;;;9.50;99.90;;;;;;5074998;28;20024;-73
2021/05/19 02:29:59;;;;;;;7.63;1.58;;;9.30;99.90;;;;;;5075037;28;20488;-74
2021/05/19 02:32:27;;;;;;;3.75;1.58;;;9.30;99.90;;;;;;5057207;28;20494;-74
2021/05/19 02:34:52;;;;;;;1.65;1.35;;;9.30;99.90;;;;;;5074987;28;20058;-74
2021/05/19 02:37:19;;;;;;;2.85;1.83;;;9.30;99.90;;;;;;5074977;28;20021;-73
2021/05/19 02:39:45;;;;;;;2.65;1.30;;;9.40;99.90;;;;;;5075000;28;20119;-73
2021/05/19 02:42:10;;;;;;;5.63;1.30;;;9.50;99.90;;;;;;5074873;28;20096;-74
2021/05/19 02:44:36;;;;;;;2.90;1.45;;;9.50;99.90;;;;;;5074896;28;20405;-74
2021/05/19 02:47:03;;;;;;;2.30;1.85;;;9.50;99.90;;;;;;5073472;28;20024;-74
2021/05/19 02:49:29;;;;;;;5.28;1.75;;;9.50;99.90;;;;;;5074567;28;20032;-74
2021/05/19 02:51:54;;;;;;;2.42;1.25;;;9.50;99.90;;;;;;5073456;28;20477;-74
2021/05/19 02:54:20;;;;;;;5.25;2.15;;;9.70;99.90;;;;;;5073494;28;20029;-74
2021/05/19 02:56:46;;;;;;;5.22;1.75;;;9.40;99.90;;;;;;5057007;28;20499;-74
2021/05/19 02:59:12;;;;;;;8.80;2.15;;;9.20;99.90;;;;;;5056631;28;20488;-74
2021/05/19 03:01:39;;;;;;;7.72;2.08;;;9.20;99.90;;;;;;5073331;28;20033;-74
2021/05/19 03:04:05;;;;;;;4.20;1.85;;;9.30;99.90;;;;;;5073281;28;20056;-74
2021/05/19 03:06:31;;;;;;;6.60;1.90;;;9.20;99.90;;;;;;5056431;28;20145;-74
2021/05/19 03:08:56;;;;;;;3.80;1.55;;;9.20;99.90;;;;;;5074347;28;20032;-74
2021/05/19 03:11:22;;;;;;;5.72;1.95;;;9.30;99.90;;;;;;5074522;28;20110;-74
2021/05/19 03:13:48;;;;;;;6.65;1.67;;;9.10;99.90;;;;;;5074488;28;20053;-74
2021/05/19 03:16:15;;;;;;;1.85;1.50;;;9.00;99.90;;;;;;5074153;28;20055;-74
2021/05/19 03:18:41;;;;;;;4.60;1.70;;;9.00;99.90;;;;;;5056298;28;20463;-73
2021/05/19 03:21:07;;;;;;;5.82;1.50;;;8.90;99.90;;;;;;5072868;28;20052;-74
2021/05/19 03:23:32;;;;;;;1.75;1.55;;;8.80;99.90;;;;;;5072885;28;20301;-74
2021/05/19 03:25:58;;;;;;;3.10;2.08;;;8.70;99.90;;;;;;5073946;28;20020;-74
2021/05/19 03:28:25;;;;;;;1.95;1.55;;;8.80;99.90;;;;;;5072926;28;20437;-74
2021/05/19 03:30:51;;;;;;;3.05;2.05;;;8.80;99.90;;;;;;5072543;28;20024;-74
2021/05/19 03:33:18;;;;;;;6.15;2.03;;;8.90;99.90;;;;;;5072695;28;20119;-74
2021/05/19 03:35:43;;;;;;;4.47;1.98;;;9.00;99.90;;;;;;5055872;28;20506;-74
2021/05/19 03:38:09;;;;;;;4.07;1.90;;;9.00;99.90;;;;;;5055977;28;20048;-74
2021/05/19 03:40:35;;;;;;;4.10;2.25;;;9.00;99.90;;;;;;5073762;28;20107;-74
2021/05/19 03:43:01;;;;;;;6.07;2.13;;;9.10;99.90;;;;;;5055841;28;20031;-74
2021/05/19 03:45:27;;;;;;;3.88;1.70;;;9.10;99.90;;;;;;5073557;28;20052;-74
2021/05/19 03:47:53;;;;;;;1.75;1.08;;;8.90;99.90;;;;;;5072326;28;20051;-74
2021/05/19 03:50:24;;;;;;;7.28;2.10;;;9.00;99.90;;;;;;5073575;28;20024;-74
2021/05/19 03:52:50;;;;;;;2.20;1.90;;;8.90;99.90;;;;;;5073474;28;20094;-74
2021/05/19 03:55:16;;;;;;;4.00;1.85;;;8.90;99.90;;;;;;5073464;28;20475;-74
2021/05/19 03:57:42;;;;;;;7.53;2.50;;;9.00;99.90;;;;;;5073574;28;20099;-73
2021/05/19 04:00:15;;;;;;;4.90;2.00;;;9.00;99.90;;;;;;5072083;28;20028;-74
2021/05/19 04:02:45;;;;;;;5.63;2.63;;;9.10;99.90;;;;;;5073412;28;20161;-74
2021/05/19 04:05:11;;;;;;;1.08;0.63;;;9.00;99.90;;;;;;5073539;28;20021;-74
2021/05/19 04:07:37;;;;;;;1.27;1.05;;;8.90;99.90;;;;;;5071936;28;20028;-74
2021/05/19 04:10:03;;;;;;;0.10;0.10;;;8.90;99.90;;;;;;5071936;28;20027;-74
2021/05/19 04:12:29;;;;;;;0.20;0.20;;;9.10;99.90;;;;;;5072090;28;20389;-74
2021/05/19 04:14:54;;;;;;;0.43;0.38;;;9.30;99.90;;;;;;5073221;28;20097;-74
2021/05/19 04:17:20;;;;;;;0.15;0.15;;;9.40;99.90;;;;;;5073084;28;20027;-74
2021/05/19 04:19:46;;;;;;;0.10;0.10;;;9.10;99.90;;;;;;5055034;28;20070;-74
2021/05/19 04:22:12;;;;;;;0.13;0.13;;;9.20;99.90;;;;;;5072896;28;20409;-74
2021/05/19 04:24:38;;;;;;;1.13;1.08;;;9.20;99.90;;;;;;5073223;28;20025;-74
2021/05/19 04:27:04;;;;;;;0.60;0.60;;;9.40;99.90;;;;;;5054847;28;20051;-74
2021/05/19 04:29:30;;;;;;;5.60;2.75;;;9.20;99.90;;;;;;5072730;28;20514;-72
2021/05/19 04:31:56;;;;;;;3.65;2.13;;;9.00;99.90;;;;;;5071405;28;20044;-74
2021/05/19 04:34:21;;;;;;;0.20;0.20;;;9.00;99.90;;;;;;5072499;28;20028;-74
2021/05/19 04:36:47;;;;;;;3.55;1.58;;;8.90;99.90;;;;;;5072430;28;20433;-74
2021/05/19 04:39:13;;;;;;;3.95;2.35;;;8.90;99.90;;;;;;5072530;28;20024;-74
2021/05/19 04:41:39;;;;;;;4.05;2.55;;;8.80;99.90;;;;;;5071093;28;20400;-74
2021/05/19 04:44:05;;;;;;;2.80;2.25;;;8.70;99.90;;;;;;5071303;28;20060;-74
2021/05/19 04:46:30;;;;;;;3.72;2.50;;;8.80;99.90;;;;;;5072019;28;20032;-74
2021/05/19 04:48:59;;;;;;;6.15;3.17;;;8.90;99.90;;;;;;5071197;28;20396;-74
2021/05/19 04:51:26;;;;;;;2.67;2.42;;;9.10;99.90;;;;;;5072520;28;20024;-74
2021/05/19 04:53:52;;;;;;;6.65;3.08;;;9.20;99.90;;;;;;5071176;28;20040;-74
2021/05/19 04:56:18;;;;;;;6.60;2.17;;;9.30;99.90;;;;;;5070875;28;20031;-74
2021/05/19 04:58:43;;;;;;;0.20;0.20;;;9.40;99.90;;;;;;5071200;28;20024;-74
2021/05/19 05:01:09;;;;;;;0.10;0.10;;;9.40;99.90;;;;;;5072283;28;20017;-74
2021/05/19 05:03:36;;;;;;;5.00;2.65;;;9.50;99.90;;;;;;5072786;28;20071;-74
2021/05/19 05:06:01;;;;;;;6.95;2.92;;;9.40;99.90;;;;;;5070548;28;20445;-74
2021/05/19 05:08:27;;;;;;;6.88;3.03;;;9.40;99.90;;;;;;5070461;28;20115;-74
2021/05/19 05:10:53;;;;;;;6.88;3.08;;;9.50;99.90;;;;;;5053741;28;20380;-74
2021/05/19 05:13:19;;;;;;;4.25;2.67;;;9.50;99.90;;;;;;5071833;28;20025;-74
2021/05/19 05:15:45;;;;;;;2.83;2.15;;;9.40;99.90;;;;;;5067731;28;20091;-74
2021/05/19 05:18:10;;;;;;;3.70;2.20;;;9.20;99.90;;;;;;5070474;28;20111;-74
2021/05/19 05:20:36;;;;;;;0.40;0.40;;;9.10;99.90;;;;;;5071612;28;20067;-74
2021/05/19 05:23:02;;;;;;;1.77;1.40;;;9.10;99.90;;;;;;5070457;28;20029;-74
2021/05/19 05:25:30;;;;;;;0.30;0.30;;;8.90;99.90;;;;;;5070634;28;20028;-74
2021/05/19 05:27:56;;;;;;;2.72;2.17;;;8.80;99.90;;;;;;5069549;28;20021;-74
2021/05/19 05:30:22;;;;;;;0.25;0.25;;;8.70;99.90;;;;;;5071154;28;20073;-74
2021/05/19 05:32:48;;;;;;;0.20;0.20;;;8.70;99.90;;;;;;5071954;28;20095;-74
2021/05/19 05:35:14;;;;;;;0.20;0.20;;;8.80;99.90;;;;;;5070535;28;20048;-74
2021/05/19 05:37:41;;;;;;;1.48;1.33;;;8.80;99.90;;;;;;5070468;28;20048;-74
2021/05/19 05:40:07;;;;;;;0.68;0.68;;;9.00;99.90;;;;;;5069673;28;20031;-74
2021/05/19 05:42:34;;;;;;;0.55;0.55;;;8.80;99.90;;;;;;5070821;28;20028;-74
2021/05/19 05:45:00;;;;;;;0.20;0.20;;;8.70;99.90;;;;;;5070889;28;20036;-74
2021/05/19 05:47:26;;;;;;;0.40;0.40;;;8.60;99.90;;;;;;5069767;28;20648;-74
2021/05/19 05:49:52;;;;;;;0.20;0.20;;;8.70;99.90;;;;;;5073332;28;20111;-74
2021/05/19 05:52:19;;;;;;;0.20;0.20;;;8.70;99.90;;;;;;5076043;28;20025;-74
2021/05/19 05:54:44;;;;;;;0.40;0.40;;;8.60;99.90;;;;;;5096925;22;20039;-72
2021/05/19 05:57:10;;;;;;;0.30;0.30;;;8.60;99.90;;;;;;5063814;28;20422;-74
2021/05/19 05:59:36;;;;;;;0.22;0.22;;;8.40;99.90;;;;;;5058262;28;20028;-74
2021/05/19 06:02:02;;;;;;;0.10;0.10;;;8.50;99.90;;;;;;5058275;28;20078;-74
2021/05/19 06:04:30;;;;;;;0.30;0.30;;;8.70;99.90;;;;;;5076218;28;20127;-74
2021/05/19 06:06:55;;;;;;;0.93;0.32;;;8.60;99.90;;;;;;5073013;28;20052;-74
2021/05/19 06:09:30;;;;;;;0.40;0.40;;;8.40;99.90;;;;;;5082638;22;20543;-89
2021/05/19 06:11:58;;;;;;;0.30;0.30;;;8.20;99.90;;;;;;5037788;28;20028;-89
2021/05/19 06:14:27;;;;;;;0.20;0.20;;;8.00;99.90;;;;;;5055851;28;20028;-88
2021/05/19 06:16:58;;;;;;;0.20;0.20;;;8.00;99.90;;;;;;5020547;28;20520;-88
2021/05/19 06:19:24;;;;;;;0.20;0.20;;;8.30;99.90;;;;;;5021218;28;20043;-89
2021/05/19 06:22:01;;;;;;;0.20;0.20;;;8.40;99.90;;;;;;5037912;28;20494;-89
2021/05/19 06:24:55;;;;;;;0.10;0.10;;;8.60;99.90;;;;;;5030473;28;20479;-88
2021/05/19 06:27:26;;;;;;;0.20;0.20;;;8.70;99.90;;;;;;5054467;28;20040;-87
2021/05/19 06:30:01;;;;;;;0.20;0.20;;;8.90;99.90;;;;;;5023619;28;20033;-87
2021/05/19 06:32:29;;;;;;;0.30;0.30;;;9.00;99.90;;;;;;5014874;28;20055;-87
2021/05/19 06:35:13;;;;;;;2.08;0.40;;;9.10;99.90;;;;;;5028253;28;20029;-87
2021/05/19 06:37:39;;;;;;;0.20;0.20;;;9.00;99.90;;;;;;5019897;28;20025;-88
2021/05/19 06:40:14;;;;;;;0.20;0.20;;;9.00;99.90;;;;;;5056011;28;20044;-88
2021/05/19 06:42:40;;;;;;;0.20;0.20;;;9.00;99.90;;;;;;5052125;28;20051;-88
2021/05/19 06:45:15;;;;;;;0.50;0.50;;;9.10;99.90;;;;;;5038065;28;20482;-88
2021/05/19 06:47:51;;;;;;;0.20;0.20;;;9.20;99.90;;;;;;5022973;28;20025;-88
2021/05/19 06:50:16;;;;;;;0.20;0.20;;;9.20;99.90;;;;;;5054711;28;20028;-88
2021/05/19 06:52:52;;;;;;;0.20;0.20;;;9.40;99.90;;;;;;5039524;28;20051;-87
2021/05/19 06:55:27;;;;;;;0.20;0.20;;;9.40;99.90;;;;;;5022252;28;20091;-87
2021/05/19 06:57:53;;;;;;;0.30;0.30;;;9.50;99.90;;;;;;5019164;28;20468;-87
2021/05/19 07:00:26;;;;;;;0.17;0.17;;;9.60;99.90;;;;;;5020067;28;20079;-87
2021/05/19 07:02:58;;;;;;;0.20;0.20;;;9.60;99.90;;;;;;5038468;28;20021;-87
2021/05/19 07:05:24;;;;;;;0.50;0.50;;;9.70;99.90;;;;;;5037001;28;20073;-86
2021/05/19 07:07:53;;;;;;;0.10;0.10;;;9.50;99.90;;;;;;5024998;28;20041;-87
2021/05/19 07:10:19;;;;;;;0.50;0.50;;;9.50;99.90;;;;;;5040464;28;20037;-89
2021/05/19 07:12:55;;;;;;;0.20;0.20;;;9.60;99.90;;;;;;5040344;28;20077;-87
2021/05/19 07:15:22;;;;;;;0.40;0.40;;;9.50;99.90;;;;;;5016101;28;20083;-89
2021/05/19 07:17:48;;;;;;;0.60;0.60;;;9.60;99.90;;;;;;5035555;28;20078;-88
2021/05/19 07:20:17;;;;;;;0.17;0.17;;;9.40;99.90;;;;;;5020464;28;20066;-88
2021/05/19 07:22:51;;;;;;;0.57;0.57;;;9.30;99.90;;;;;;5019683;28;20738;-90
2021/05/19 07:25:20;;;;;;;0.20;0.20;;;9.40;99.90;;;;;;5019719;28;20029;-89
2021/05/19 07:27:46;;;;;;;0.73;0.73;;;9.30;99.90;;;;;;5035818;28;20041;-89
2021/05/19 07:30:31;;;;;;;0.20;0.20;;;9.40;99.90;;;;;;5017286;28;20505;-89
2021/05/19 07:33:05;;;;;;;0.10;0.10;;;9.50;99.90;;;;;;5014458;28;20028;-89
2021/05/19 07:35:39;;;;;;;0.20;0.20;;;9.40;99.90;;;;;;5015028;28;20033;-89
2021/05/19 07:38:08;;;;;;;0.30;0.30;;;9.40;99.90;;;;;;5038442;28;20078;-89
2021/05/19 07:40:51;;;;;;;0.10;0.10;;;9.40;99.90;;;;;;5036300;28;20033;-89
2021/05/19 07:43:28;;;;;;;1.02;1.00;;;9.40;99.90;;;;;;5019168;28;20515;-88
2021/05/19 07:45:56;;;;;;;0.38;0.38;;;9.50;99.90;;;;;;5019755;28;20486;-89
2021/05/19 07:48:25;;;;;;;0.20;0.20;;;9.60;99.90;;;;;;5036397;28;20159;-88
2021/05/19 07:50:59;;;;;;;0.63;0.63;;;9.70;99.90;;;;;;5052054;28;20029;-89
2021/05/19 07:53:43;;;;;;;0.20;0.20;;;9.80;99.90;;;;;;5036289;28;20037;-88
2021/05/19 07:56:21;;;;;;;0.20;0.20;;;9.60;99.90;;;;;;5023741;28;20013;-88
2021/05/19 07:59:24;;;;;;;0.88;0.20;;;9.60;99.90;;;;;;5036344;28;20478;-90
2021/05/19 08:02:01;;;;;;;0.20;0.20;;;9.90;99.90;;;;;;5047896;28;20044;-89
2021/05/19 08:04:28;;;;;;;4.10;2.25;;;9.90;99.90;;;;;;5032397;28;20630;-89
2021/05/19 08:06:54;;;;;;;0.50;0.50;;;10.10;99.90;;;;;;5019553;28;20028;-89
2021/05/19 08:09:25;;;;;;;0.20;0.20;;;9.90;99.90;;;;;;5030717;28;20030;-89
2021/05/19 08:12:36;;;;;;;0.20;0.20;;;10.00;99.90;;;;;;5019865;28;20025;-88
2021/05/19 08:15:08;;;;;;;0.13;0.13;;;9.90;99.90;;;;;;4980478;28;20498;-88
2021/05/19 08:17:45;;;;;;;0.73;0.73;;;10.20;99.90;;;;;;5034313;28;20075;-88
2021/05/19 08:20:20;;;;;;;0.55;0.55;;;10.30;99.90;;;;;;5020680;28;20061;-87
2021/05/19 08:22:48;;;;;;;0.20;0.20;;;9.90;99.90;;;;;;5036231;28;20021;-86
2021/05/19 08:25:15;;;;;;;0.10;0.10;;;10.00;99.90;;;;;;5015473;28;20520;-87
2021/05/19 08:27:41;;;;;;;0.20;0.20;;;10.20;99.90;;;;;;5033784;28;20025;-89
2021/05/19 08:30:12;;;;;;;3.63;2.05;;;10.30;99.90;;;;;;5032337;28;20390;-88
2021/05/19 08:33:13;;;;;;;0.13;0.13;;;10.20;99.90;;;;;;5033881;28;20029;-88
2021/05/19 08:36:15;;;;;;;0.63;0.57;;;10.20;99.90;;;;;;5027377;28;20035;-89
2021/05/19 08:39:25;;;;;;;1.00;0.88;;;10.30;99.90;;;;;;4971890;28;20066;-90
2021/05/19 08:41:51;;;;;;;0.90;0.80;;;10.50;99.90;;;;;;4976426;28;20039;-86
2021/05/19 08:44:20;;;;;;;0.40;0.40;;;10.40;99.90;;;;;;4989868;28;20061;-88
2021/05/19 08:46:48;;;;;;;1.65;0.50;;;9.90;99.90;;;;;;4986894;28;20060;-88
2021/05/19 08:49:21;;;;;;;1.23;1.13;;;9.90;99.90;;;;;;5012630;28;20032;-86
2021/05/19 08:51:51;;;;;;;0.77;0.75;;;9.80;99.90;;;;;;5017646;28;20086;-88
2021/05/19 08:54:19;;;;;;;0.20;0.20;;;9.90;99.90;;;;;;5017510;28;20047;-88
2021/05/19 08:56:48;;;;;;;1.73;0.98;;;9.80;99.90;;;;;;5013108;28;20033;-89
2021/05/19 08:59:20;;;;;;;0.67;0.67;;;9.90;99.90;;;;;;5017172;28;20060;-88
2021/05/19 09:01:51;;;;;;;0.40;0.40;;;10.10;99.90;;;;;;5034509;28;20283;-87
2021/05/19 09:04:28;;;;;;;0.50;0.50;;;9.90;99.90;;;;;;5029971;28;20071;-88
2021/05/19 09:07:02;;;;;;;0.98;0.98;;;9.80;99.90;;;;;;5015587;28;20376;-88
2021/05/19 09:09:51;;;;;;;0.20;0.20;;;9.20;99.90;;;;;;5020932;28;20052;-85
2021/05/19 09:12:36;;;;;;;0.70;0.60;;;8.90;99.90;;;;;;5018683;28;20023;-89
2021/05/19 09:15:13;;;;;;;0.40;0.40;;;8.80;99.90;;;;;;5014550;28;20032;-88
2021/05/19 09:18:00;;;;;;;0.20;0.20;;;8.80;99.90;;;;;;5030719;28;20029;-88
2021/05/19 09:20:48;;;;;;;0.13;0.13;;;8.70;99.90;;;;;;5052259;28;20032;-89
2021/05/19 09:23:22;;;;;;;0.30;0.30;;;8.40;99.90;;;;;;5014226;28;20139;-88
2021/05/19 09:26:12;;;;;;;0.20;0.20;;;8.50;99.90;;;;;;5031208;28;20064;-87
2021/05/19 09:28:41;;;;;;;0.20;0.20;;;8.40;99.90;;;;;;5012617;28;20033;-88
2021/05/19 09:31:23;;;;;;;0.10;0.10;;;8.20;99.90;;;;;;5034410;28;20027;-88
2021/05/19 09:33:51;;;;;;;0.60;0.32;;;8.20;99.90;;;;;;5030085;28;20035;-89
2021/05/19 09:36:38;;;;;;;0.20;0.20;;;8.20;99.90;;;;;;5032933;28;20025;-88
2021/05/19 09:39:10;;;;;;;0.20;0.20;;;8.40;99.90;;;;;;5032879;28;20044;-89
2021/05/19 09:41:44;;;;;;;0.47;0.47;;;8.50;99.90;;;;;;5016217;28;20093;-90
2021/05/19 09:44:22;;;;;;;1.35;0.40;;;8.40;99.90;;;;;;5029944;28;20132;-88
2021/05/19 09:46:51;;;;;;;0.20;0.20;;;8.40;99.90;;;;;;5016897;28;20497;-88
2021/05/19 09:49:26;;;;;;;0.47;0.47;;;8.30;99.90;;;;;;5029972;28;20039;-89
2021/05/19 09:51:59;;;;;;;1.00;1.00;;;8.40;99.90;;;;;;5026807;28;20463;-88
2021/05/19 09:54:44;;;;;;;1.30;1.20;;;8.40;99.90;;;;;;5016312;28;20459;-89
2021/05/19 09:57:16;;;;;;;3.55;2.13;;;8.60;99.90;;;;;;5015477;28;20021;-87
2021/05/19 09:59:52;;;;;;;;;;;8.80;99.90;;;;;;5033255;28;20510;-88
2021/05/19 10:02:43;;;;;;;0.45;0.45;;;8.90;99.90;;;;;;5011217;28;20362;-89
2021/05/19 10:05:43;;;;;;;0.20;0.20;;;9.20;99.90;;;;;;5016783;28;20036;-85
2021/05/19 10:08:06;;;;;;;0.63;0.63;;;9.30;99.90;;;;;;5043237;28;20459;-88
2021/05/19 10:11:00;;;;;;;0.20;0.20;;;9.40;99.90;;;;;;5033611;28;20037;-88
2021/05/19 10:13:33;;;;;;;0.20;0.20;;;9.70;99.90;;;;;;5039670;28;20016;-84
2021/05/19 10:16:21;;;;;;;0.20;0.20;;;9.70;99.90;;;;;;5055733;28;20041;-87
2021/05/19 10:19:07;;;;;;;0.20;0.20;;;10.00;99.90;;;;;;5035567;28;20024;-85
2021/05/19 10:21:40;;;;;;;0.20;0.20;;;10.30;99.90;;;;;;5039835;28;20105;-86
2021/05/19 10:24:13;;;;;;;0.82;0.80;;;10.50;99.90;;;;;;5040985;28;20089;-85
2021/05/19 10:27:11;;;;;;;0.40;0.40;;;10.60;99.90;;;;;;5038916;28;20092;-89
2021/05/19 10:29:48;;;;;;;0.20;0.20;;;10.40;99.90;;;;;;5016641;28;20041;-88
2021/05/19 10:36:18;;;;;;;1.65;1.15;;;10.40;99.90;;;;;;4969058;28;20039;-88
2021/05/19 10:39:14;;;;;;;8.13;1.57;;;9.80;99.90;;;;;;4921855;28;20090;-87
2021/05/19 10:42:01;;;;;;;;;;;;;;;;;;;;;
2021/05/19 10:45:15;;;;;;;0.30;0.30;;;9.00;99.90;;;;;;5038486;28;20021;-87
2021/05/19 10:48:37;;;;;;;0.20;0.20;;;8.70;99.90;;;;;;4961052;28;20037;-88
2021/05/19 10:51:39;;;;;;;0.20;0.20;;;8.90;99.90;;;;;;4992937;28;20127;-89
2021/05/19 10:57:30;;;;;;;0.20;0.20;;;9.10;99.90;;;;;;5034236;28;20033;-86
2021/05/19 11:00:29;;;;;;;0.45;0.45;;;9.20;99.90;;;;;;5032264;28;20532;-88
2021/05/19 11:03:04;;;;;;;0.35;0.35;;;9.20;99.90;;;;;;5018839;28;20470;-87
2021/05/19 11:05:57;;;;;;;0.20;0.20;;;9.20;99.90;;;;;;5053830;28;20013;-88
2021/05/19 11:11:30;;;;;;;0.20;0.20;;;9.20;99.90;;;;;;5053664;28;20040;-88
2021/05/19 11:14:01;;;;;;;0.20;0.20;;;9.10;99.90;;;;;;5034089;28;20390;-88
2021/05/19 11:19:33;;;;;;;0.45;0.45;;;9.00;99.90;;;;;;5036864;28;20025;-89
2021/05/19 11:22:12;;;;;;;0.20;0.20;;;9.00;99.90;;;;;;5034642;28;20037;-89
2021/05/19 11:25:02;;;;;;;0.73;0.73;;;9.10;99.90;;;;;;5019498;28;20029;-87
2021/05/19 11:27:51;;;;;;;1.23;1.13;;;8.90;99.90;;;;;;5018130;28;20121;-86
2021/05/19 11:30:29;;;;;;;0.85;0.57;;;8.80;99.90;;;;;;5030193;28;20067;-89
2021/05/19 11:33:20;;;;;;;2.28;1.08;;;8.80;99.90;;;;;;5015786;28;20028;-88
2021/05/19 11:35:49;;;;;;;3.50;2.53;;;8.70;99.90;;;;;;5035236;28;20017;-89
2021/05/19 11:38:24;;;;;;;0.60;0.60;;;8.40;99.90;;;;;;5037035;28;20029;-87
2021/05/19 11:41:08;;;;;;;0.93;0.93;;;8.40;99.90;;;;;;5024847;28;20115;-88
2021/05/19 11:43:42;;;;;;;0.25;0.25;;;8.50;99.90;;;;;;5032710;28;20408;-87
2021/05/19 11:46:14;;;;;;;0.17;0.17;;;8.70;99.90;;;;;;5015267;28;20027;-91
2021/05/19 11:49:14;;;;;;;2.55;1.00;;;8.80;99.90;;;;;;5021071;28;20554;-89
2021/05/19 11:51:58;;;;;;;5.55;3.53;;;9.10;99.90;;;;;;5022001;28;20483;-88
2021/05/19 11:54:33;;;;;;;;;;;8.50;99.90;;;;;;5017748;28;20151;-88
2021/05/19 11:57:03;;;;;;;3.95;2.65;;;8.40;99.90;;;;;;5108922;23;19982;-74
2021/05/19 11:59:33;;;;;;;4.25;2.35;;;8.40;99.90;;;;;;5050831;28;20028;-73
2021/05/19 12:02:03;;;;;;;3.47;2.88;;;8.50;99.90;;;;;;5033658;28;20028;-74
2021/05/19 12:04:32;;;;;;;2.67;1.95;;;8.50;99.90;;;;;;5035266;28;20453;-74
2021/05/19 12:07:02;;;;;;;5.18;2.40;;;8.50;99.90;;;;;;5032213;28;20026;-74
2021/05/19 12:09:37;;;;;;;3.10;2.55;;;8.60;99.90;;;;;;5034129;28;20477;-74
2021/05/19 12:12:14;;;;;;;1.42;1.33;;;8.80;99.90;;;;;;5029591;28;20476;-73
2021/05/19 12:14:51;;;;;;;2.40;1.80;;;9.00;99.90;;;;;;5030555;28;20072;-74
2021/05/19 12:17:22;;;;;;;2.50;1.77;;;9.00;99.90;;;;;;5031657;28;20032;-74
2021/05/19 12:19:47;;;;;;;0.95;0.90;;;9.00;99.90;;;;;;5031862;28;20052;-74
2021/05/19 12:22:18;;;;;;;4.32;2.20;;;9.10;99.90;;;;;;5035152;28;20087;-74
2021/05/19 12:24:45;;;;;;;6.30;3.70;;;9.20;99.90;;;;;;5031641;28;20032;-74
2021/05/19 12:27:15;;;;;;;1.45;1.35;;;9.00;99.90;;;;;;5029944;28;20460;-73
2021/05/19 12:29:51;;;;;;;5.45;2.67;;;9.20;99.90;;;;;;5030541;28;20031;-74
2021/05/19 12:32:23;;;;;;;3.03;2.25;;;9.20;99.90;;;;;;5033189;28;20025;-74
2021/05/19 12:35:06;;;;;;;7.35;2.47;;;9.20;99.90;;;;;;5034268;28;20109;-74
2021/05/19 12:37:43;;;;;;;4.68;1.85;;;9.40;99.90;;;;;;5032618;28;20489;-74
2021/05/19 12:40:15;;;;;;;4.45;1.20;;;9.40;99.90;;;;;;5030937;28;20040;-75
2021/05/19 12:42:44;;;;;;;0.98;0.73;;;9.40;99.90;;;;;;5031602;28;20124;-74
2021/05/19 12:45:11;;;;;;;0.20;0.20;;;9.40;99.90;;;;;;5031303;28;20029;-74
2021/05/19 12:47:38;;;;;;;2.25;2.03;;;9.80;99.90;;;;;;5014214;28;20057;-74
2021/05/19 12:50:06;;;;;;;1.65;1.27;;;9.80;99.90;;;;;;5029694;28;20086;-74
2021/05/19 12:52:34;;;;;;;0.70;0.70;;;10.00;99.90;;;;;;5030393;28;20013;-74
2021/05/19 12:55:01;;;;;;;0.75;0.47;;;10.20;99.90;;;;;;5045426;28;20048;-74
2021/05/19 12:57:28;;;;;;;1.77;1.65;;;10.20;99.90;;;;;;5028992;28;20488;-75
2021/05/19 13:00:13;;;;;;;0.45;0.45;;;10.10;99.90;;;;;;5028412;28;20056;-74
2021/05/19 13:02:38;;;;;;;0.30;0.30;;;10.20;99.90;;;;;;5028037;28;20017;-74
2021/05/19 13:05:17;;;;;;;0.57;0.57;;;10.20;99.90;;;;;;5013072;28;20033;-74
2021/05/19 13:07:45;;;;;;;0.65;0.65;;;10.60;99.90;;;;;;5027798;28;20096;-74
2021/05/19 13:10:31;;;;;;;3.05;1.52;;;10.90;99.90;;;;;;5032693;28;20031;-74
2021/05/19 13:13:02;;;;;;;2.00;0.98;;;10.30;99.90;;;;;;5026291;28;20037;-74
2021/05/19 13:15:35;;;;;;;4.32;1.00;;;10.10;99.90;;;;;;5030869;28;20032;-74
2021/05/19 13:18:10;;;;;;;0.30;0.30;;;10.10;99.90;;;;;;5046512;28;20050;-77
2021/05/19 13:21:08;;;;;;;1.00;0.93;;;10.10;99.90;;;;;;5029380;28;20049;-74
2021/05/19 13:23:57;;;;;;;0.75;0.57;;;10.40;99.90;;;;;;5029848;28;20547;-75
2021/05/19 13:26:31;;;;;;;1.55;1.38;;;10.70;99.90;;;;;;5029269;28;20025;-75
2021/05/19 13:28:58;;;;;;;2.00;1.38;;;10.50;99.90;;;;;;5029471;28;20025;-75
2021/05/19 13:31:37;;;;;;;0.15;0.15;;;10.50;99.90;;;;;;5028609;28;20545;-74
2021/05/19 13:39:05;;;;;;;0.50;0.50;;;11.60;99.90;;;;;;5028699;28;20082;-75
2021/05/19 13:41:31;;;;;;;0.50;0.50;;;11.70;99.90;;;;;;5032329;28;20026;-75
2021/05/19 13:43:57;;;;;;;0.20;0.20;;;11.10;99.90;;;;;;5033043;28;20029;-75
2021/05/19 13:46:23;;;;;;;0.70;0.50;;;11.10;99.90;;;;;;5031287;28;20373;-75